Stella Lucy — 9V2548 — position and weather

sailwx.info

Track history (hours):
 
Tides and Currents Weather Stations Pressure Air Temp Water Temp Dewpoint Dewpoint Depression Visibility Wind Speed Wind Dir Waves Ship Positions

Stella Lucy

Last reported at 2018-Jun-18 20:52 UTC. Time now 2018-Jun-25 11:51 UTC.
Position S 34°30' E 017°40'.

Length 295 m; draft 10.6 m.

Type: Cargo ship. MMSI: 563312000.

Date/timePositionNaut miles runAvg speedWind from/ knotsBaromVisibWave heightAir tempDewpointWater temp
2018-Jun-18 20:52S 34°30' E 017°40'7 8.0
2018-Jun-18 19:57S 34°31' E 017°49'4 8.0
2018-Jun-18 19:30S 34°31' E 017°53'4 8.2
2018-Jun-18 19:00S 34°32' E 017°58'5 8.6
2018-Jun-18 18:27S 34°34' E 018°04'4 8.4
2018-Jun-18 18:00S 34°35' E 018°08'4 8.7
2018-Jun-18 17:30S 34°36' E 018°13'4 8.5
2018-Jun-18 17:00S 34°37' E 018°18'4 8.7
2018-Jun-18 16:30S 34°39' E 018°23'4 8.6
2018-Jun-18 16:00S 34°40' E 018°28'4 8.8
2018-Jun-18 15:30S 34°41' E 018°33'4 8.6
2018-Jun-18 15:00S 34°43' E 018°38'4 8.1
2018-Jun-18 14:29S 34°44' E 018°43'4 8.4
2018-Jun-18 14:00S 34°45' E 018°47'4 8.2
2018-Jun-18 13:28S 34°47' E 018°52'5 8.1
2018-Jun-18 12:54S 34°48' E 018°58'  
2018-Jun-15 05:59S 33°19' E 031°36'1211.4
2018-Jun-15 04:57S 33°17' E 031°50'511.0
2018-Jun-15 04:30S 33°16' E 031°56'511.0
2018-Jun-15 04:00S 33°15' E 032°02'510.9
2018-Jun-15 03:30S 33°14' E 032°09'611.2
2018-Jun-15 03:00S 33°14' E 032°16'611.5
2018-Jun-15 02:30S 33°13' E 032°22'611.5
2018-Jun-15 02:00S 33°12' E 032°29'612.1
2018-Jun-15 01:30S 33°11' E 032°36'612.4
2018-Jun-15 01:00S 33°10' E 032°44'612.0
2018-Jun-15 00:30S 33°09' E 032°51'611.8
2018-Jun-15 00:00S 33°09' E 032°58'611.6
2018-Jun-14 23:28S 33°08' E 033°05'611.1
2018-Jun-14 22:53S 33°07' E 033°13'  
Track history (hours):
 
Tides and Currents Weather Stations Pressure Air Temp Water Temp Dewpoint Dewpoint Depression Visibility Wind Speed Wind Dir Waves Ship Positions

Stella Lucy

Last reported at 2018-Jun-18 20:52 UTC. Time now 2018-Jun-25 11:51 UTC.
Position S 34°30' E 017°40'.

Length 295 m; draft 10.6 m.

Type: Cargo ship. MMSI: 563312000.

Date/timePositionNaut miles runAvg speedWind from/ knotsBaromVisibWave heightAir tempDewpointWater temp
2018-Jun-18 20:52S 34°30' E 017°40'7 8.0
2018-Jun-18 19:57S 34°31' E 017°49'4 8.0
2018-Jun-18 19:30S 34°31' E 017°53'4 8.2
2018-Jun-18 19:00S 34°32' E 017°58'5 8.6
2018-Jun-18 18:27S 34°34' E 018°04'4 8.4
2018-Jun-18 18:00S 34°35' E 018°08'4 8.7
2018-Jun-18 17:30S 34°36' E 018°13'4 8.5
2018-Jun-18 17:00S 34°37' E 018°18'4 8.7
2018-Jun-18 16:30S 34°39' E 018°23'4 8.6
2018-Jun-18 16:00S 34°40' E 018°28'4 8.8
2018-Jun-18 15:30S 34°41' E 018°33'4 8.6
2018-Jun-18 15:00S 34°43' E 018°38'4 8.1
2018-Jun-18 14:29S 34°44' E 018°43'4 8.4
2018-Jun-18 14:00S 34°45' E 018°47'4 8.2
2018-Jun-18 13:28S 34°47' E 018°52'5 8.1
2018-Jun-18 12:54S 34°48' E 018°58'  
2018-Jun-15 05:59S 33°19' E 031°36'1211.4
2018-Jun-15 04:57S 33°17' E 031°50'511.0
2018-Jun-15 04:30S 33°16' E 031°56'511.0
2018-Jun-15 04:00S 33°15' E 032°02'510.9
2018-Jun-15 03:30S 33°14' E 032°09'611.2
2018-Jun-15 03:00S 33°14' E 032°16'611.5
2018-Jun-15 02:30S 33°13' E 032°22'611.5
2018-Jun-15 02:00S 33°12' E 032°29'612.1
2018-Jun-15 01:30S 33°11' E 032°36'612.4
2018-Jun-15 01:00S 33°10' E 032°44'612.0
2018-Jun-15 00:30S 33°09' E 032°51'611.8
2018-Jun-15 00:00S 33°09' E 032°58'611.6
2018-Jun-14 23:28S 33°08' E 033°05'611.1
2018-Jun-14 22:53S 33°07' E 033°13'  

Dump ship's entire track history